Time;durP1;ratioP1;P1;durP2;ratioP2;P2;SDS_P1;SDS_P2;PMS_P1;PMS_P2;Temp;Humidity;BMP_temperature;BMP_pressure;BME280_temperature;BME280_humidity;BME280_pressure;Samples;Min_cycle;Max_cycle;Signal;HPM_P1;HPM_P2
2022/10/18 00:01:29;;;;;;;0.88;0.75;;;19.80;60.00;;;;;;6267509;28;20029;-71
2022/10/18 00:04:30;;;;;;;0.80;0.60;;;19.80;60.00;;;;;;6266930;28;20032;-72
2022/10/18 00:07:33;;;;;;;0.52;0.50;;;19.90;60.10;;;;;;6267162;28;20025;-72
2022/10/18 00:10:34;;;;;;;0.60;0.60;;;19.80;60.00;;;;;;6267172;28;20068;-73
2022/10/18 00:13:36;;;;;;;0.70;0.60;;;19.80;60.00;;;;;;6267115;28;20027;-72
2022/10/18 00:16:37;;;;;;;1.20;0.70;;;19.80;60.00;;;;;;6267435;28;20032;-72
2022/10/18 00:19:38;;;;;;;1.08;0.60;;;19.90;60.20;;;;;;6266998;28;20029;-72
2022/10/18 00:22:40;;;;;;;0.60;0.60;;;19.80;60.00;;;;;;6267454;28;20028;-72
2022/10/18 00:25:40;;;;;;;0.70;0.70;;;19.80;60.00;;;;;;6267323;28;20033;-72
2022/10/18 00:28:42;;;;;;;0.70;0.70;;;19.90;60.10;;;;;;6266980;28;20079;-72
2022/10/18 00:31:43;;;;;;;1.45;0.60;;;19.90;60.20;;;;;;6266474;28;20052;-72
2022/10/18 00:34:44;;;;;;;0.50;0.50;;;19.80;60.00;;;;;;6266414;28;20104;-72
2022/10/18 00:37:45;;;;;;;0.98;0.60;;;19.80;60.00;;;;;;6265002;28;20397;-71
2022/10/18 00:40:45;;;;;;;0.80;0.50;;;19.90;60.20;;;;;;6266374;28;20100;-72
2022/10/18 00:44:05;;;;;;;0.63;0.60;;;19.80;60.00;;;;;;6265375;28;20489;-72
2022/10/18 00:47:09;;;;;;;1.42;1.02;;;19.80;60.00;;;;;;6245168;28;20017;-72
2022/10/18 00:50:10;;;;;;;0.52;0.45;;;19.80;60.00;;;;;;6240496;28;20129;-72
2022/10/18 00:53:17;;;;;;;0.40;0.40;;;19.80;60.00;;;;;;6241750;28;20056;-72
2022/10/18 00:56:18;;;;;;;0.50;0.50;;;19.90;60.20;;;;;;6240416;28;20701;-72
2022/10/18 00:59:19;;;;;;;0.82;0.63;;;19.90;60.20;;;;;;6240471;28;20029;-72
2022/10/18 01:02:20;;;;;;;1.08;0.70;;;19.80;60.00;;;;;;6241814;28;20033;-72
2022/10/18 01:05:22;;;;;;;0.85;0.70;;;19.90;60.20;;;;;;6240281;28;20391;-73
2022/10/18 01:08:26;;;;;;;1.67;0.60;;;19.80;60.00;;;;;;6241250;28;20647;-72
2022/10/18 01:11:55;;;;;;;1.10;0.90;;;19.90;60.20;;;;;;6240194;28;20029;-72
2022/10/18 01:15:02;;;;;;;0.70;0.70;;;19.80;60.00;;;;;;6242825;28;20021;-72
2022/10/18 01:18:18;;;;;;;0.80;0.65;;;19.80;60.00;;;;;;6245210;28;20528;-72
2022/10/18 01:21:43;;;;;;;0.43;0.43;;;19.80;60.00;;;;;;6246774;28;20037;-72
2022/10/18 01:24:59;;;;;;;0.77;0.50;;;19.80;60.00;;;;;;6244822;28;20028;-72
2022/10/18 01:28:26;;;;;;;0.88;0.60;;;19.90;61.10;;;;;;6245044;28;20146;-72
2022/10/18 01:31:36;;;;;;;0.75;0.60;;;19.90;60.20;;;;;;6244829;28;20056;-72
2022/10/18 01:34:38;;;;;;;0.60;0.60;;;19.80;60.00;;;;;;6244750;28;20018;-72
2022/10/18 01:37:43;;;;;;;0.60;0.60;;;19.90;60.20;;;;;;6269579;28;20025;-72
2022/10/18 01:40:47;;;;;;;1.07;0.70;;;19.80;60.00;;;;;;6270719;28;20024;-72
2022/10/18 01:43:52;;;;;;;0.88;0.73;;;19.80;60.10;;;;;;6269280;28;20539;-72
2022/10/18 01:46:55;;;;;;;0.70;0.70;;;19.90;60.20;;;;;;6269043;28;20021;-72
2022/10/18 01:50:00;;;;;;;0.50;0.50;;;19.80;60.00;;;;;;6269095;28;20077;-71
2022/10/18 01:53:00;;;;;;;0.60;0.53;;;19.90;61.00;;;;;;6269346;28;20112;-71
2022/10/18 01:56:15;;;;;;;0.93;0.70;;;19.90;60.20;;;;;;6270229;28;20066;-72
2022/10/18 01:59:25;;;;;;;0.60;0.60;;;19.90;60.20;;;;;;6270235;28;20039;-72
2022/10/18 02:02:25;;;;;;;0.55;0.55;;;19.90;60.20;;;;;;6270129;28;20060;-72
2022/10/18 02:05:42;;;;;;;1.10;0.60;;;19.90;60.30;;;;;;6268857;28;20039;-72
2022/10/18 02:08:58;;;;;;;1.02;0.80;;;19.90;60.20;;;;;;6268764;28;20489;-72
2022/10/18 02:12:02;;;;;;;1.10;0.60;;;19.90;60.20;;;;;;6270334;28;20021;-72
2022/10/18 02:15:05;;;;;;;1.13;0.50;;;19.80;60.00;;;;;;6269731;28;20633;-72
2022/10/18 02:18:11;;;;;;;0.55;0.45;;;19.90;60.30;;;;;;6269968;28;20025;-72
2022/10/18 02:21:16;;;;;;;0.88;0.68;;;19.80;60.00;;;;;;6268640;28;20037;-72
2022/10/18 02:24:18;;;;;;;0.63;0.60;;;19.90;60.20;;;;;;6269817;28;20021;-72
2022/10/18 02:27:19;;;;;;;1.05;0.70;;;19.90;61.00;;;;;;6267163;28;20548;-72
2022/10/18 02:30:29;;;;;;;0.70;0.60;;;19.90;60.20;;;;;;6269450;28;20352;-72
2022/10/18 02:33:44;;;;;;;0.40;0.40;;;19.90;60.20;;;;;;6269514;28;20033;-71
2022/10/18 02:36:54;;;;;;;0.73;0.70;;;19.90;60.20;;;;;;6268229;28;20574;-72
2022/10/18 02:39:55;;;;;;;0.93;0.50;;;19.90;60.20;;;;;;6269375;28;20474;-72
2022/10/18 02:42:57;;;;;;;0.80;0.70;;;19.90;60.30;;;;;;6268210;28;20056;-72
2022/10/18 02:45:58;;;;;;;0.50;0.50;;;19.90;60.20;;;;;;6268977;28;20028;-72
2022/10/18 02:48:58;;;;;;;0.85;0.65;;;19.90;60.20;;;;;;6268407;28;20049;-72
2022/10/18 02:51:59;;;;;;;1.25;0.65;;;19.90;60.20;;;;;;6268541;28;20025;-72
2022/10/18 02:55:00;;;;;;;0.50;0.50;;;19.90;60.20;;;;;;6267775;28;20096;-72
2022/10/18 02:58:01;;;;;;;0.50;0.50;;;19.90;60.20;;;;;;6267487;28;20021;-72
2022/10/18 03:01:01;;;;;;;1.00;0.82;;;19.90;60.20;;;;;;6268648;28;20108;-72
2022/10/18 03:04:03;;;;;;;0.50;0.50;;;19.90;60.20;;;;;;6268557;28;20438;-71
2022/10/18 03:07:04;;;;;;;0.45;0.45;;;19.90;60.20;;;;;;6268634;28;20027;-72
2022/10/18 03:10:05;;;;;;;0.90;0.70;;;19.90;60.20;;;;;;6268801;28;20025;-72
2022/10/18 03:13:06;;;;;;;0.80;0.70;;;19.90;60.20;;;;;;6267088;28;20037;-72
2022/10/18 03:16:07;;;;;;;0.77;0.60;;;19.90;60.20;;;;;;6266867;28;20385;-73
2022/10/18 03:19:10;;;;;;;0.52;0.50;;;19.90;60.20;;;;;;6268142;28;20482;-72
2022/10/18 03:22:11;;;;;;;0.70;0.52;;;19.90;60.20;;;;;;6267111;28;20029;-72
2022/10/18 03:25:11;;;;;;;0.52;0.52;;;19.90;60.20;;;;;;6266526;28;20082;-72
2022/10/18 03:28:12;;;;;;;0.52;0.52;;;19.90;60.20;;;;;;6267393;28;20025;-72
2022/10/18 03:31:12;;;;;;;0.65;0.50;;;19.90;60.20;;;;;;6268337;28;20631;-72
2022/10/18 03:34:14;;;;;;;0.45;0.45;;;19.90;60.20;;;;;;6258724;28;20068;-73
2022/10/18 03:37:15;;;;;;;0.50;0.47;;;19.90;60.20;;;;;;6242678;28;20083;-72
2022/10/18 03:40:16;;;;;;;0.68;0.55;;;19.90;60.30;;;;;;6242181;28;20065;-72
2022/10/18 03:43:17;;;;;;;0.55;0.47;;;19.90;60.20;;;;;;6242011;28;20686;-73
2022/10/18 03:46:18;;;;;;;0.68;0.60;;;19.90;60.20;;;;;;6243224;28;20029;-72
2022/10/18 03:49:21;;;;;;;1.63;0.60;;;19.90;60.20;;;;;;6262424;28;20284;-73
2022/10/18 03:52:30;;;;;;;0.60;0.60;;;19.90;60.20;;;;;;6269772;28;20052;-72
2022/10/18 03:55:30;;;;;;;0.50;0.50;;;19.90;60.20;;;;;;6267464;28;20474;-72
2022/10/18 03:58:31;;;;;;;2.03;0.75;;;19.90;60.20;;;;;;6268048;28;20029;-72
2022/10/18 04:01:32;;;;;;;0.98;0.77;;;19.90;60.20;;;;;;6266430;28;20064;-72
2022/10/18 04:04:32;;;;;;;0.55;0.43;;;19.90;60.20;;;;;;6267620;28;20536;-72
2022/10/18 04:07:34;;;;;;;0.50;0.50;;;19.90;60.20;;;;;;6266210;28;20151;-73
2022/10/18 04:10:37;;;;;;;0.50;0.40;;;19.90;60.20;;;;;;6267372;28;20104;-73
2022/10/18 04:13:38;;;;;;;0.60;0.43;;;19.90;60.20;;;;;;6265665;28;20086;-73
2022/10/18 04:16:38;;;;;;;0.80;0.70;;;19.90;60.20;;;;;;6257815;28;20021;-73
2022/10/18 04:19:40;;;;;;;0.68;0.60;;;19.90;61.10;;;;;;6242468;28;20033;-72
2022/10/18 04:22:41;;;;;;;0.60;0.60;;;19.90;60.30;;;;;;6242678;28;20056;-73
2022/10/18 04:25:41;;;;;;;0.52;0.50;;;19.90;60.20;;;;;;6240948;28;20029;-72
2022/10/18 04:28:42;;;;;;;0.88;0.60;;;19.90;60.20;;;;;;6240713;28;20026;-72
2022/10/18 04:31:43;;;;;;;0.80;0.60;;;19.90;61.10;;;;;;6240919;28;20448;-73
2022/10/18 04:34:44;;;;;;;0.60;0.50;;;19.90;60.20;;;;;;6241793;28;20030;-73
2022/10/18 04:37:44;;;;;;;0.73;0.50;;;19.90;60.20;;;;;;6241935;28;20021;-73
2022/10/18 04:40:45;;;;;;;0.50;0.50;;;19.90;60.20;;;;;;6242008;28;20417;-73
2022/10/18 04:43:46;;;;;;;0.63;0.40;;;19.90;60.20;;;;;;6247614;28;20508;-73
2022/10/18 04:46:46;;;;;;;0.70;0.60;;;19.90;60.20;;;;;;6267504;28;20032;-72
2022/10/18 04:49:47;;;;;;;0.60;0.60;;;19.90;60.20;;;;;;6256385;28;20049;-72
2022/10/18 04:52:48;;;;;;;0.40;0.40;;;19.90;60.20;;;;;;6241479;28;20487;-73
2022/10/18 04:55:49;;;;;;;0.65;0.45;;;19.90;60.20;;;;;;6256771;28;20018;-73
2022/10/18 04:58:50;;;;;;;0.70;0.57;;;19.90;60.20;;;;;;6247034;28;20873;-72
2022/10/18 05:01:51;;;;;;;0.32;0.32;;;19.90;60.30;;;;;;6264648;28;20035;-72
2022/10/18 05:04:51;;;;;;;0.50;0.40;;;19.80;60.10;;;;;;6266074;28;20096;-73
2022/10/18 05:07:52;;;;;;;0.70;0.65;;;19.90;60.30;;;;;;6265125;28;20021;-72
2022/10/18 05:10:53;;;;;;;0.43;0.43;;;19.90;60.20;;;;;;6264738;28;20091;-73
2022/10/18 05:13:53;;;;;;;0.40;0.40;;;19.90;60.20;;;;;;6264680;28;20017;-73
2022/10/18 05:16:54;;;;;;;0.50;0.50;;;19.90;60.20;;;;;;6266071;28;20013;-72
2022/10/18 05:19:55;;;;;;;0.98;0.60;;;19.90;60.20;;;;;;6265875;28;20138;-73
2022/10/18 05:22:57;;;;;;;1.10;0.80;;;19.90;60.30;;;;;;6264787;28;20112;-72
2022/10/18 05:26:01;;;;;;;0.40;0.40;;;19.90;60.20;;;;;;6266136;28;20075;-73
2022/10/18 05:29:02;;;;;;;0.40;0.40;;;19.90;60.30;;;;;;6264599;28;20029;-73
2022/10/18 05:32:03;;;;;;;0.60;0.50;;;19.90;60.30;;;;;;6264835;28;20170;-72
2022/10/18 05:35:06;;;;;;;0.77;0.60;;;19.90;60.20;;;;;;6265620;28;20017;-72
2022/10/18 05:38:07;;;;;;;0.65;0.57;;;19.90;60.30;;;;;;6261290;28;20063;-73
2022/10/18 05:41:08;;;;;;;0.77;0.65;;;19.90;60.30;;;;;;6260581;28;20021;-73
2022/10/18 05:44:09;;;;;;;0.98;0.63;;;19.90;60.20;;;;;;6255920;28;20021;-73
2022/10/18 05:47:10;;;;;;;0.65;0.50;;;19.90;61.10;;;;;;6244633;28;20486;-72
2022/10/18 05:50:10;;;;;;;0.65;0.60;;;19.90;60.30;;;;;;6240725;28;20402;-72
2022/10/18 05:53:11;;;;;;;0.43;0.43;;;19.90;60.20;;;;;;6264910;28;20704;-72
2022/10/18 05:56:13;;;;;;;1.05;0.70;;;19.90;60.10;;;;;;6265115;28;20021;-72
2022/10/18 05:59:13;;;;;;;1.08;0.68;;;19.90;60.20;;;;;;6264175;28;20055;-75
2022/10/18 06:02:14;;;;;;;0.70;0.55;;;19.90;60.10;;;;;;6252492;28;20021;-72
2022/10/18 06:05:15;;;;;;;0.50;0.43;;;19.90;60.00;;;;;;6245953;28;20471;-72
2022/10/18 06:08:15;;;;;;;0.55;0.50;;;19.90;60.10;;;;;;6246172;28;20025;-72
2022/10/18 06:11:18;;;;;;;1.15;0.50;;;19.90;60.20;;;;;;6268461;28;20029;-73
2022/10/18 06:14:19;;;;;;;0.50;0.50;;;19.90;60.20;;;;;;6270898;28;20048;-73
2022/10/18 06:17:20;;;;;;;0.82;0.52;;;19.90;60.20;;;;;;6271729;28;20487;-73
2022/10/18 06:20:21;;;;;;;0.40;0.40;;;19.90;60.30;;;;;;6271551;28;20029;-73
2022/10/18 06:23:21;;;;;;;0.85;0.60;;;19.90;60.30;;;;;;6288575;28;20508;-73
2022/10/18 06:26:22;;;;;;;1.50;0.50;;;19.90;60.20;;;;;;6290563;28;20390;-74
2022/10/18 06:29:24;;;;;;;0.40;0.40;;;19.90;60.30;;;;;;6271931;28;20355;-74
2022/10/18 06:32:25;;;;;;;0.40;0.40;;;19.90;60.30;;;;;;6262051;28;20055;-75
2022/10/18 06:35:26;;;;;;;0.60;0.50;;;19.90;60.30;;;;;;6252286;28;20035;-74
2022/10/18 06:38:28;;;;;;;0.50;0.50;;;19.90;60.30;;;;;;6271283;28;20069;-74
2022/10/18 06:41:29;;;;;;;0.88;0.50;;;19.90;60.30;;;;;;6270088;28;20082;-74
2022/10/18 06:44:30;;;;;;;0.50;0.50;;;19.90;60.40;;;;;;6264813;28;20029;-74
2022/10/18 06:47:31;;;;;;;0.65;0.50;;;19.90;60.40;;;;;;6270963;28;20110;-74
2022/10/18 06:50:32;;;;;;;0.77;0.50;;;19.90;60.40;;;;;;6271990;28;20095;-73
2022/10/18 06:53:35;;;;;;;0.93;0.65;;;19.90;60.40;;;;;;6269866;28;20021;-73
2022/10/18 06:56:37;;;;;;;0.70;0.60;;;19.90;60.40;;;;;;6271403;28;20025;-73
2022/10/18 06:59:38;;;;;;;0.70;0.50;;;19.90;60.40;;;;;;6270059;28;20071;-73
2022/10/18 07:02:40;;;;;;;0.45;0.45;;;19.90;60.40;;;;;;6262157;28;20437;-73
2022/10/18 07:05:40;;;;;;;0.85;0.60;;;19.90;60.50;;;;;;6246219;28;20516;-73
2022/10/18 07:08:42;;;;;;;0.65;0.55;;;19.90;60.50;;;;;;6281922;28;20029;-73
2022/10/18 07:11:43;;;;;;;0.40;0.40;;;19.90;60.40;;;;;;6267203;28;20028;-74
2022/10/18 07:14:45;;;;;;;1.08;0.60;;;19.90;60.40;;;;;;6270589;28;20021;-73
2022/10/18 07:17:45;;;;;;;0.50;0.50;;;19.90;60.50;;;;;;6269405;28;20071;-74
2022/10/18 07:20:46;;;;;;;0.82;0.57;;;19.90;60.50;;;;;;6270549;28;20029;-73
2022/10/18 07:23:47;;;;;;;0.57;0.50;;;19.90;60.40;;;;;;6285680;28;20100;-73
2022/10/18 07:26:48;;;;;;;0.73;0.60;;;19.90;60.40;;;;;;6292288;28;20036;-73
2022/10/18 07:29:49;;;;;;;0.50;0.50;;;19.90;60.40;;;;;;6244082;28;20060;-74
2022/10/18 07:32:52;;;;;;;0.60;0.50;;;19.90;60.40;;;;;;6244522;28;20040;-73
2022/10/18 07:35:53;;;;;;;0.50;0.50;;;19.90;60.40;;;;;;6268662;28;20036;-75
2022/10/18 07:38:54;;;;;;;1.00;0.57;;;20.00;60.60;;;;;;6268867;28;20490;-74
2022/10/18 07:41:56;;;;;;;0.70;0.50;;;20.00;60.60;;;;;;6268849;28;20602;-74
2022/10/18 07:44:57;;;;;;;1.27;0.60;;;19.90;60.50;;;;;;6251294;28;20482;-73
2022/10/18 07:47:57;;;;;;;0.93;0.55;;;20.00;60.60;;;;;;6254748;28;20025;-74
2022/10/18 07:51:00;;;;;;;0.70;0.57;;;19.90;60.50;;;;;;6270011;28;20052;-74
2022/10/18 07:54:02;;;;;;;0.70;0.65;;;20.00;60.60;;;;;;6269694;28;20033;-73
2022/10/18 07:57:03;;;;;;;1.05;0.40;;;19.90;60.60;;;;;;6269581;28;20021;-73
2022/10/18 08:00:05;;;;;;;0.35;0.35;;;20.00;60.60;;;;;;6249102;28;20033;-74
2022/10/18 08:03:06;;;;;;;0.80;0.57;;;20.00;60.60;;;;;;6263664;28;20025;-74
2022/10/18 08:06:10;;;;;;;0.85;0.70;;;19.90;60.50;;;;;;6268631;28;20028;-74
2022/10/18 08:09:10;;;;;;;0.52;0.52;;;20.00;60.60;;;;;;6259113;28;20037;-74
2022/10/18 08:12:11;;;;;;;0.95;0.60;;;20.00;60.60;;;;;;6244752;28;20068;-74
2022/10/18 08:15:12;;;;;;;1.15;0.50;;;20.00;60.50;;;;;;6267126;28;20079;-74
2022/10/18 08:18:13;;;;;;;0.50;0.50;;;20.00;60.60;;;;;;6269460;28;20028;-74
2022/10/18 08:21:15;;;;;;;0.70;0.60;;;20.00;60.60;;;;;;6267742;28;20017;-74
2022/10/18 08:24:16;;;;;;;0.85;0.60;;;20.00;60.60;;;;;;6268677;28;20021;-73
2022/10/18 08:27:17;;;;;;;0.75;0.68;;;20.00;60.60;;;;;;6269198;28;20049;-74
2022/10/18 08:30:18;;;;;;;0.75;0.50;;;20.00;60.60;;;;;;6269183;28;20025;-76
2022/10/18 08:33:18;;;;;;;1.27;0.60;;;20.00;60.60;;;;;;6269494;28;20104;-73
2022/10/18 08:36:19;;;;;;;0.60;0.50;;;20.00;60.60;;;;;;6269226;28;20558;-74
2022/10/18 08:39:20;;;;;;;1.67;0.52;;;20.00;60.60;;;;;;6262767;28;20890;-74
2022/10/18 08:42:46;;;;;;;0.70;0.47;;;20.00;60.50;;;;;;6259909;28;20440;-74
2022/10/18 08:45:48;;;;;;;;;;;20.00;60.60;;;;;;6256144;28;20040;-74
2022/10/18 08:48:52;;;;;;;0.57;0.57;;;20.00;60.50;;;;;;6248836;28;19917;-76
2022/10/18 08:51:55;;;;;;;0.57;0.50;;;20.00;60.50;;;;;;6259638;28;20107;-74
2022/10/18 08:55:35;;;;;;;0.52;0.52;;;20.00;60.60;;;;;;6259866;28;20036;-74
2022/10/18 08:58:36;;;;;;;0.88;0.70;;;20.00;60.60;;;;;;6267759;28;20075;-73
2022/10/18 09:02:04;;;;;;;0.50;0.50;;;20.00;60.50;;;;;;6269069;28;20025;-73
2022/10/18 09:05:25;;;;;;;0.77;0.60;;;20.00;61.40;;;;;;6268252;28;20038;-74
2022/10/18 09:08:38;;;;;;;0.88;0.70;;;20.00;61.40;;;;;;6268043;28;20029;-74
2022/10/18 09:11:42;;;;;;;0.73;0.52;;;20.00;60.60;;;;;;6267631;28;20021;-72
2022/10/18 09:15:20;;;;;;;0.60;0.60;;;20.00;60.60;;;;;;6269198;28;20017;-72
2022/10/18 09:18:37;;;;;;;1.05;0.52;;;20.00;60.60;;;;;;6267850;28;20029;-72
2022/10/18 09:22:15;;;;;;;1.30;0.63;;;20.00;60.60;;;;;;6269050;28;20028;-73
2022/10/18 09:25:22;;;;;;;1.23;0.70;;;20.00;60.70;;;;;;6256908;28;20037;-72
2022/10/18 09:28:35;;;;;;;0.95;0.63;;;20.00;60.60;;;;;;6267903;28;20078;-73
2022/10/18 09:31:58;;;;;;;1.10;0.50;;;20.00;60.60;;;;;;6269528;28;20104;-74
2022/10/18 09:35:10;;;;;;;1.23;0.80;;;20.00;60.60;;;;;;6268804;28;20038;-74
2022/10/18 09:38:16;;;;;;;0.82;0.60;;;20.00;60.50;;;;;;6273418;28;20029;-72
2022/10/18 09:41:23;;;;;;;0.80;0.60;;;20.00;60.60;;;;;;6274066;28;20025;-73
2022/10/18 09:44:34;;;;;;;1.00;0.65;;;20.00;60.60;;;;;;6272600;28;20048;-73
2022/10/18 09:47:44;;;;;;;1.30;0.70;;;20.00;60.50;;;;;;6272847;28;20035;-73
2022/10/18 09:50:55;;;;;;;0.70;0.60;;;20.00;60.60;;;;;;6273636;28;20045;-73
2022/10/18 09:54:02;;;;;;;1.17;0.75;;;20.00;60.60;;;;;;6272639;28;20666;-73
2022/10/18 09:57:14;;;;;;;0.90;0.55;;;20.00;60.50;;;;;;6272450;28;20021;-73
2022/10/18 10:00:21;;;;;;;0.70;0.55;;;20.00;60.60;;;;;;6272637;28;20035;-73
2022/10/18 10:03:22;;;;;;;0.50;0.50;;;20.00;60.50;;;;;;6273793;28;20025;-73
2022/10/18 10:06:33;;;;;;;0.57;0.50;;;20.00;60.60;;;;;;6273587;28;20025;-73
2022/10/18 10:09:47;;;;;;;0.57;0.55;;;20.00;60.60;;;;;;6272108;28;20566;-75
2022/10/18 10:13:13;;;;;;;0.25;0.25;;;20.00;60.50;;;;;;6273405;28;20092;-73
2022/10/18 10:16:13;;;;;;;0.80;0.65;;;20.00;60.60;;;;;;6271827;28;20092;-73
2022/10/18 10:19:22;;;;;;;0.40;0.40;;;20.00;60.60;;;;;;6257957;28;20037;-73
2022/10/18 10:22:30;;;;;;;0.85;0.52;;;20.00;60.60;;;;;;6252109;28;20056;-74
2022/10/18 10:25:34;;;;;;;1.33;0.60;;;20.00;60.60;;;;;;6270798;28;20029;-73
2022/10/18 10:28:47;;;;;;;0.93;0.60;;;20.00;60.60;;;;;;6272277;28;20029;-73
2022/10/18 10:32:02;;;;;;;0.82;0.63;;;20.00;60.60;;;;;;6272134;28;20024;-73
2022/10/18 10:35:23;;;;;;;0.40;0.40;;;20.00;60.70;;;;;;6270777;28;20090;-73
2022/10/18 10:38:25;;;;;;;0.65;0.65;;;20.00;60.60;;;;;;6272151;28;20107;-73
2022/10/18 10:41:26;;;;;;;0.60;0.50;;;20.00;60.60;;;;;;6270995;28;20028;-75
2022/10/18 10:44:34;;;;;;;0.70;0.60;;;20.00;60.50;;;;;;6270737;28;20056;-72
2022/10/18 10:47:36;;;;;;;0.63;0.45;;;20.00;60.50;;;;;;6243968;28;20030;-73
2022/10/18 10:50:52;;;;;;;0.40;0.40;;;20.00;60.60;;;;;;6245079;28;20033;-72
2022/10/18 10:53:58;;;;;;;0.50;0.50;;;20.00;60.60;;;;;;6245826;28;20032;-72
2022/10/18 10:57:11;;;;;;;0.60;0.55;;;20.00;60.60;;;;;;6247236;28;20020;-72
2022/10/18 11:00:43;;;;;;;1.52;0.60;;;20.00;60.50;;;;;;6261911;28;20036;-73
2022/10/18 11:03:49;;;;;;;0.50;0.50;;;20.00;60.50;;;;;;6256550;28;20036;-73
2022/10/18 11:07:03;;;;;;;0.75;0.70;;;20.00;60.60;;;;;;6268491;28;20028;-73
2022/10/18 11:10:09;;;;;;;0.75;0.47;;;20.00;60.60;;;;;;6270073;28;20028;-73
2022/10/18 11:13:24;;;;;;;0.63;0.60;;;20.00;60.60;;;;;;6260828;28;20056;-73
2022/10/18 11:16:27;;;;;;;0.65;0.60;;;20.00;60.60;;;;;;6268980;28;20020;-74
2022/10/18 11:20:00;;;;;;;0.57;0.57;;;20.00;60.60;;;;;;6261633;28;20028;-73
2022/10/18 11:23:15;;;;;;;1.17;0.60;;;20.00;60.60;;;;;;6235657;28;20041;-73
2022/10/18 11:26:25;;;;;;;0.57;0.50;;;20.00;60.60;;;;;;6259759;28;20086;-73
2022/10/18 11:29:41;;;;;;;0.60;0.50;;;20.00;60.60;;;;;;6270771;28;20031;-73
2022/10/18 11:33:16;;;;;;;0.55;0.50;;;20.00;60.60;;;;;;6245879;28;20677;-73
2022/10/18 11:36:37;;;;;;;0.95;0.55;;;20.00;60.70;;;;;;6256921;28;20544;-73
2022/10/18 11:40:02;;;;;;;0.47;0.47;;;20.00;60.60;;;;;;6269128;28;20075;-73
2022/10/18 11:43:30;;;;;;;0.73;0.57;;;20.00;60.70;;;;;;6260573;28;20680;-73
2022/10/18 11:46:50;;;;;;;1.40;0.70;;;20.00;60.60;;;;;;6261427;28;20518;-73
2022/10/18 11:49:59;;;;;;;0.43;0.40;;;20.00;60.60;;;;;;6269765;28;20502;-73
2022/10/18 11:53:05;;;;;;;1.30;0.50;;;20.00;60.60;;;;;;6269065;28;20013;-73
2022/10/18 11:56:22;;;;;;;0.65;0.40;;;20.00;60.60;;;;;;6269956;28;20021;-73
2022/10/18 11:59:37;;;;;;;0.82;0.45;;;20.00;60.60;;;;;;6268794;28;20729;-73
2022/10/18 12:02:53;;;;;;;;;;;20.00;60.60;;;;;;6270967;28;20028;-73
2022/10/18 12:05:56;;;;;;;0.50;0.43;;;20.00;60.60;;;;;;6269020;28;19905;-73
2022/10/18 12:09:01;;;;;;;1.10;0.70;;;20.10;60.70;;;;;;6268756;28;20333;-72
2022/10/18 12:12:19;;;;;;;0.63;0.52;;;20.00;60.60;;;;;;6269992;28;20029;-73
2022/10/18 12:15:23;;;;;;;0.70;0.60;;;20.00;60.60;;;;;;6269644;28;20028;-73
2022/10/18 12:18:25;;;;;;;0.90;0.73;;;20.00;60.60;;;;;;6269677;28;20032;-73
2022/10/18 12:21:29;;;;;;;0.98;0.60;;;20.00;60.60;;;;;;6270958;28;20074;-72
2022/10/18 12:24:31;;;;;;;0.80;0.63;;;20.10;60.80;;;;;;6269673;28;20083;-73
2022/10/18 12:27:55;;;;;;;0.80;0.60;;;20.00;60.60;;;;;;6268119;28;20131;-73
2022/10/18 12:31:06;;;;;;;0.80;0.60;;;20.00;60.60;;;;;;6268231;28;20029;-73
2022/10/18 12:34:33;;;;;;;0.60;0.55;;;20.00;60.60;;;;;;6269518;28;20017;-73
2022/10/18 12:38:12;;;;;;;0.75;0.60;;;20.00;60.60;;;;;;6269330;28;20104;-73
2022/10/18 12:41:45;;;;;;;0.90;0.63;;;20.00;60.60;;;;;;6257113;28;20047;-73
2022/10/18 12:44:47;;;;;;;0.50;0.50;;;20.00;60.60;;;;;;6260647;28;20502;-73
2022/10/18 12:47:47;;;;;;;0.95;0.70;;;20.10;60.80;;;;;;6268682;28;20100;-73
2022/10/18 12:50:57;;;;;;;0.70;0.50;;;20.00;60.60;;;;;;6269121;28;20147;-73
2022/10/18 12:54:01;;;;;;;1.58;0.60;;;20.00;60.60;;;;;;6268867;28;20136;-72
2022/10/18 12:57:05;;;;;;;1.15;0.80;;;20.10;60.80;;;;;;6267606;28;20027;-72
2022/10/18 13:00:29;;;;;;;0.77;0.50;;;20.00;60.60;;;;;;6267749;28;20028;-73
2022/10/18 13:03:53;;;;;;;0.40;0.35;;;20.00;60.60;;;;;;6267626;28;20026;-73
2022/10/18 13:06:58;;;;;;;0.43;0.43;;;20.10;60.70;;;;;;6267698;28;20024;-73
2022/10/18 13:10:11;;;;;;;0.43;0.35;;;20.10;60.80;;;;;;6270323;28;20017;-73
2022/10/18 13:13:24;;;;;;;0.85;0.68;;;20.10;60.80;;;;;;6274749;28;20127;-74
2022/10/18 13:16:35;;;;;;;0.50;0.43;;;20.10;60.80;;;;;;6273948;28;20021;-74
2022/10/18 13:19:51;;;;;;;0.93;0.70;;;20.00;60.60;;;;;;6264597;28;20037;-74
2022/10/18 13:23:13;;;;;;;0.75;0.57;;;20.00;60.70;;;;;;6259438;28;20029;-74
2022/10/18 13:26:39;;;;;;;0.55;0.50;;;20.10;60.80;;;;;;6273557;28;20044;-75
2022/10/18 13:30:16;;;;;;;0.73;0.60;;;20.10;60.80;;;;;;6272509;28;20033;-74
2022/10/18 13:33:40;;;;;;;0.52;0.47;;;20.10;61.70;;;;;;6273665;28;20021;-74
2022/10/18 13:36:41;;;;;;;1.17;0.60;;;20.10;60.70;;;;;;6272011;28;20021;-74
2022/10/18 13:39:43;;;;;;;1.02;0.63;;;20.10;60.80;;;;;;6273221;28;20437;-74
2022/10/18 13:42:44;;;;;;;1.42;0.50;;;20.10;60.80;;;;;;6273548;28;20033;-74
2022/10/18 13:45:54;;;;;;;0.40;0.40;;;20.00;60.60;;;;;;6272682;28;20032;-75
2022/10/18 13:49:18;;;;;;;0.80;0.45;;;20.10;60.70;;;;;;6274983;28;20098;-77
2022/10/18 13:52:56;;;;;;;1.05;0.60;;;20.10;60.80;;;;;;6276128;28;20044;-77
2022/10/18 13:56:30;;;;;;;1.15;0.70;;;20.10;60.80;;;;;;6275899;28;20051;-75
2022/10/18 14:00:03;;;;;;;0.50;0.47;;;20.10;60.70;;;;;;6276849;28;20063;-76
2022/10/18 14:03:32;;;;;;;0.50;0.50;;;20.10;60.80;;;;;;6275163;28;20021;-77
2022/10/18 14:06:37;;;;;;;0.63;0.63;;;20.10;60.80;;;;;;6274812;28;20067;-77
2022/10/18 14:09:46;;;;;;;;;;;20.10;60.80;;;;;;6276351;28;20045;-76
2022/10/18 14:12:56;;;;;;;1.52;0.90;;;20.10;60.70;;;;;;6276203;28;19905;-76
2022/10/18 14:16:12;;;;;;;1.00;0.70;;;20.10;60.80;;;;;;6269023;28;20383;-75
2022/10/18 14:19:15;;;;;;;0.90;0.70;;;20.10;60.80;;;;;;6283192;28;20073;-75
2022/10/18 14:22:21;;;;;;;1.00;0.50;;;20.10;60.80;;;;;;6279689;28;20161;-74
2022/10/18 14:25:28;;;;;;;1.52;0.77;;;20.10;60.80;;;;;;6246332;28;20112;-73
2022/10/18 14:28:29;;;;;;;0.85;0.50;;;20.10;60.80;;;;;;6248444;28;20025;-74
2022/10/18 14:31:31;;;;;;;1.02;0.50;;;20.10;60.80;;;;;;6266301;28;20021;-76
2022/10/18 14:34:33;;;;;;;0.68;0.38;;;20.10;60.80;;;;;;6251208;28;20037;-75
2022/10/18 14:37:35;;;;;;;0.70;0.70;;;20.10;60.80;;;;;;6246975;28;20017;-75
2022/10/18 14:40:39;;;;;;;0.57;0.50;;;20.10;60.80;;;;;;6245816;28;20666;-76
2022/10/18 14:43:40;;;;;;;0.95;0.60;;;20.10;61.60;;;;;;6258323;28;20025;-76
2022/10/18 14:46:49;;;;;;;0.55;0.50;;;20.10;60.80;;;;;;6271591;28;20032;-74
2022/10/18 14:49:56;;;;;;;1.50;0.60;;;20.10;60.80;;;;;;6270670;28;20048;-74
2022/10/18 14:53:02;;;;;;;0.80;0.60;;;20.10;60.80;;;;;;6271303;28;20066;-73
2022/10/18 14:56:04;;;;;;;0.63;0.50;;;20.10;60.80;;;;;;6269561;28;20021;-74
2022/10/18 14:59:15;;;;;;;0.50;0.50;;;20.10;60.80;;;;;;6254450;28;20079;-73
2022/10/18 15:02:20;;;;;;;0.60;0.50;;;20.10;60.80;;;;;;6246301;28;20021;-76
2022/10/18 15:05:25;;;;;;;0.80;0.52;;;20.10;60.80;;;;;;6246234;28;20030;-75
2022/10/18 15:08:36;;;;;;;0.60;0.43;;;20.10;60.80;;;;;;6244672;28;20056;-75
2022/10/18 15:11:40;;;;;;;1.35;0.57;;;20.10;60.80;;;;;;6253836;28;20025;-74
2022/10/18 15:14:42;;;;;;;1.35;0.70;;;20.10;60.80;;;;;;6269600;28;20062;-74
2022/10/18 15:17:44;;;;;;;0.60;0.60;;;20.10;60.80;;;;;;6268548;28;20083;-73
2022/10/18 15:21:26;;;;;;;0.85;0.60;;;20.10;60.80;;;;;;6262513;28;20025;-74
2022/10/18 15:24:28;;;;;;;1.15;0.70;;;20.10;60.80;;;;;;6253831;28;20594;-74
2022/10/18 15:27:34;;;;;;;0.80;0.60;;;20.10;60.80;;;;;;6245735;28;20036;-73
2022/10/18 15:30:42;;;;;;;0.52;0.50;;;20.10;60.80;;;;;;6263836;28;20025;-75
2022/10/18 15:33:43;;;;;;;0.60;0.50;;;20.10;60.80;;;;;;6263549;28;20108;-76
2022/10/18 15:36:44;;;;;;;1.05;0.60;;;20.10;60.80;;;;;;6244734;28;20021;-75
2022/10/18 15:39:45;;;;;;;0.50;0.50;;;20.10;60.80;;;;;;6251976;28;20029;-76
2022/10/18 15:42:51;;;;;;;0.60;0.60;;;20.10;60.90;;;;;;6267960;28;20025;-76
2022/10/18 15:45:58;;;;;;;1.13;0.52;;;20.10;60.90;;;;;;6245794;28;20029;-70
2022/10/18 15:49:18;;;;;;;1.88;0.70;;;20.10;60.80;;;;;;6252358;28;20052;-74
2022/10/18 15:52:33;;;;;;;0.50;0.40;;;20.10;60.80;;;;;;6270010;28;20025;-74
2022/10/18 15:55:45;;;;;;;0.82;0.50;;;20.10;60.80;;;;;;6268807;28;20051;-74
2022/10/18 15:58:47;;;;;;;1.35;0.60;;;20.10;60.80;;;;;;6268901;28;20025;-74
2022/10/18 16:01:48;;;;;;;0.90;0.40;;;20.10;60.90;;;;;;6268207;28;20025;-74
2022/10/18 16:04:50;;;;;;;0.40;0.40;;;20.10;60.80;;;;;;6269947;28;20025;-74
2022/10/18 16:07:51;;;;;;;0.60;0.50;;;20.10;60.80;;;;;;6268475;28;20502;-74
2022/10/18 16:10:52;;;;;;;1.00;0.60;;;20.10;60.90;;;;;;6269218;28;20056;-74
2022/10/18 16:13:54;;;;;;;0.70;0.70;;;20.10;60.80;;;;;;6267663;28;20029;-73